Terminal Aerodrome Forecast
Issued by NWS

Home | Current Version | Previous Version | Text Only | Print | Product List | Glossary On
Versions: 1 2 3 4 5 6 7 8 9 10 11 12 13 14 15 16 17 18
971
FTUS42 KMLB 261740
TAFLEE
TAF
KLEE 261740Z 2618/2718 26004KT P6SM SKC
     FM270100 VRB02KT P6SM SKC
     FM271500 20005KT P6SM SKC=

USA.gov is the U.S. government's official web portal to all federal, state and local government web resources and services.